createdAt,value
2023-07-25T00:00:09.187Z,65.12
2023-07-25T00:02:58.454Z,65.47
2023-07-25T00:05:28.876Z,65.39
2023-07-25T00:07:57.601Z,65.11
2023-07-25T00:10:26.547Z,64.90
2023-07-25T00:12:56.422Z,64.80
2023-07-25T00:15:25.600Z,65.22
2023-07-25T00:17:54.289Z,64.71
2023-07-25T00:20:23.276Z,65.06
2023-07-25T00:22:53.365Z,65.33
2023-07-25T00:25:22.877Z,65.68
2023-07-25T00:27:51.911Z,66.48
2023-07-25T00:30:21.082Z,66.85
2023-07-25T00:32:49.938Z,67.50
2023-07-25T00:35:19.166Z,67.06
2023-07-25T00:37:47.852Z,67.49
2023-07-25T00:40:18.362Z,67.88
2023-07-25T00:42:47.155Z,67.77
2023-07-25T00:45:16.276Z,68.05
2023-07-25T00:47:45.179Z,68.17
2023-07-25T00:50:14.553Z,68.44
2023-07-25T00:52:43.930Z,68.47
2023-07-25T00:55:14.830Z,68.77
2023-07-25T00:57:44.908Z,69.07
2023-07-25T01:00:15.011Z,69.23
2023-07-25T01:02:44.023Z,69.55
2023-07-25T01:05:13.459Z,69.87
2023-07-25T01:07:43.448Z,70.14
2023-07-25T01:10:14.711Z,70.36
2023-07-25T01:12:44.899Z,70.24
2023-07-25T01:15:13.969Z,70.66
2023-07-25T01:17:42.750Z,70.75
2023-07-25T01:20:12.781Z,70.55
2023-07-25T01:22:43.142Z,71.42
2023-07-25T01:25:13.685Z,71.53
2023-07-25T01:27:42.577Z,71.32
2023-07-25T01:30:12.365Z,71.63
2023-07-25T01:32:41.205Z,71.40
2023-07-25T01:35:10.617Z,71.78
2023-07-25T01:37:39.651Z,71.57
2023-07-25T01:40:11.374Z,71.68
2023-07-25T01:42:41.595Z,72.01
2023-07-25T01:45:12.266Z,71.72
2023-07-25T01:47:41.346Z,72.44
2023-07-25T01:50:11.407Z,72.61
2023-07-25T01:52:40.166Z,72.88
2023-07-25T01:55:10.818Z,73.22
2023-07-25T01:57:40.975Z,73.26
2023-07-25T02:00:11.601Z,73.19
2023-07-25T02:02:43.532Z,73.54
2023-07-25T02:05:12.828Z,73.84
2023-07-25T02:07:41.707Z,74.27
2023-07-25T02:10:11.417Z,74.68
2023-07-25T02:12:41.858Z,74.88
2023-07-25T02:15:12.099Z,75.03
2023-07-25T02:17:40.884Z,75.50
2023-07-25T02:20:11.045Z,75.77
2023-07-25T02:22:39.901Z,75.75
2023-07-25T02:25:10.142Z,76.27
2023-07-25T02:27:38.843Z,76.49
2023-07-25T02:30:10.524Z,76.60
2023-07-25T02:32:39.350Z,76.94
2023-07-25T02:35:08.826Z,76.96
2023-07-25T02:37:37.822Z,77.05
2023-07-25T02:40:09.615Z,77.30
2023-07-25T02:42:38.455Z,77.46
2023-07-25T02:45:10.763Z,77.51
2023-07-25T02:47:39.733Z,77.81
2023-07-25T02:50:10.270Z,77.90
2023-07-25T02:52:39.097Z,77.88
2023-07-25T02:55:08.966Z,78.29
2023-07-25T02:57:37.759Z,78.74
2023-07-25T03:00:10.881Z,78.73
2023-07-25T03:02:39.742Z,78.67
2023-07-25T03:05:09.525Z,78.87
2023-07-25T03:07:38.357Z,79.02
2023-07-25T03:10:09.334Z,78.94
2023-07-25T03:12:38.152Z,78.99
2023-07-25T03:15:09.531Z,79.25
2023-07-25T03:17:38.954Z,79.21
2023-07-25T03:20:09.940Z,79.56
2023-07-25T03:22:38.867Z,79.40
2023-07-25T03:25:08.898Z,79.34
2023-07-25T03:27:38.088Z,79.52
2023-07-25T03:30:09.909Z,79.57
2023-07-25T03:32:38.780Z,79.83
2023-07-25T03:35:10.231Z,80.08
2023-07-25T03:37:39.026Z,80.40
2023-07-25T03:40:09.591Z,80.58
2023-07-25T03:42:38.424Z,80.59
2023-07-25T03:45:10.619Z,80.16
2023-07-25T03:47:39.497Z,80.39
2023-07-25T03:50:09.849Z,80.19
2023-07-25T03:52:38.603Z,80.16
2023-07-25T03:55:09.194Z,80.07
2023-07-25T03:57:38.101Z,79.77
2023-07-25T04:00:10.291Z,79.81
2023-07-25T04:02:41.896Z,79.83
2023-07-25T04:05:11.258Z,79.48
2023-07-25T04:07:40.213Z,79.26
2023-07-25T04:10:10.383Z,79.21
2023-07-25T04:12:39.142Z,78.89
2023-07-25T04:15:11.093Z,78.60
2023-07-25T04:17:40.061Z,78.26
2023-07-25T04:20:10.873Z,77.91
2023-07-25T04:22:40.806Z,76.82
2023-07-25T04:25:10.442Z,75.58
2023-07-25T04:27:39.192Z,74.55
2023-07-25T04:30:11.574Z,74.20
2023-07-25T04:32:40.553Z,72.50
2023-07-25T04:35:10.642Z,71.23
2023-07-25T04:37:39.427Z,70.93
2023-07-25T04:40:10.688Z,69.69
2023-07-25T04:42:39.484Z,68.10
2023-07-25T04:45:12.178Z,68.08
2023-07-25T04:47:40.988Z,67.26
2023-07-25T04:50:11.520Z,67.07
2023-07-25T04:52:40.508Z,66.79
2023-07-25T04:55:10.880Z,65.86
2023-07-25T04:57:39.927Z,65.78
2023-07-25T05:00:12.150Z,65.33
2023-07-25T05:02:42.748Z,65.34
2023-07-25T05:05:12.220Z,65.25
2023-07-25T05:07:40.925Z,64.96
2023-07-25T05:10:11.201Z,66.10
2023-07-25T05:12:40.049Z,65.64
2023-07-25T05:15:11.148Z,64.65
2023-07-25T05:17:39.879Z,64.53
2023-07-25T05:20:10.442Z,63.37
2023-07-25T05:22:39.226Z,62.76
2023-07-25T05:25:09.579Z,62.94
2023-07-25T05:27:38.367Z,61.77
2023-07-25T05:30:10.235Z,60.99
2023-07-25T05:32:39.880Z,59.84
2023-07-25T05:35:09.332Z,59.11
2023-07-25T05:37:39.760Z,58.20
2023-07-25T05:40:10.789Z,58.09
2023-07-25T05:42:39.586Z,57.57
2023-07-25T05:45:11.127Z,58.08
2023-07-25T05:47:39.919Z,58.11
2023-07-25T05:50:10.672Z,57.47
2023-07-25T05:52:39.416Z,56.52
2023-07-25T05:55:09.435Z,56.53
2023-07-25T05:57:38.399Z,55.57
2023-07-25T06:00:11.092Z,56.15
2023-07-25T06:02:39.941Z,56.13
2023-07-25T06:05:09.556Z,54.79
2023-07-25T06:07:38.331Z,55.67
2023-07-25T06:10:09.349Z,56.52
2023-07-25T06:12:38.224Z,56.50
2023-07-25T06:15:10.573Z,56.57
2023-07-25T06:17:39.359Z,56.28
2023-07-25T06:20:10.444Z,55.86
2023-07-25T06:22:39.864Z,55.88
2023-07-25T06:25:14.010Z,55.70
2023-07-25T06:27:42.880Z,54.73
2023-07-25T06:30:14.158Z,55.58
2023-07-25T06:32:43.403Z,55.18
2023-07-25T06:35:12.598Z,54.46
2023-07-25T06:37:41.619Z,53.02
2023-07-25T06:40:11.811Z,54.04
2023-07-25T06:42:40.614Z,54.06
2023-07-25T06:45:13.410Z,53.62
2023-07-25T06:47:42.178Z,53.02
2023-07-25T06:50:11.697Z,52.28
2023-07-25T06:52:40.454Z,53.53
2023-07-25T06:55:10.853Z,52.53
2023-07-25T06:57:39.748Z,51.31
2023-07-25T07:00:10.588Z,51.63
2023-07-25T07:02:40.664Z,51.71
2023-07-25T07:05:28.056Z,51.53
2023-07-25T07:07:58.558Z,51.39
2023-07-25T07:10:27.935Z,51.98
2023-07-25T07:12:56.773Z,51.36
2023-07-25T07:15:26.225Z,51.49
2023-07-25T07:17:56.524Z,51.30
2023-07-25T07:20:25.812Z,51.71
2023-07-25T07:22:54.567Z,50.97
2023-07-25T07:25:23.666Z,51.57
2023-07-25T07:27:52.518Z,51.50
2023-07-25T07:30:21.910Z,50.35
2023-07-25T07:32:50.754Z,49.46
2023-07-25T07:35:21.700Z,49.14
2023-07-25T07:37:50.625Z,48.96
2023-07-25T07:40:19.564Z,49.92
2023-07-25T07:42:48.326Z,50.29
2023-07-25T07:45:17.753Z,50.46
2023-07-25T07:47:47.194Z,49.73
2023-07-25T07:50:16.242Z,49.88
2023-07-25T07:52:47.866Z,49.37
2023-07-25T07:55:19.821Z,50.00
2023-07-25T07:57:49.639Z,49.97
2023-07-25T08:00:19.639Z,48.79
2023-07-25T08:02:48.592Z,48.66
2023-07-25T08:05:17.818Z,48.35
2023-07-25T08:07:48.123Z,48.76
2023-07-25T08:10:17.357Z,47.53
2023-07-25T08:12:46.241Z,47.65
2023-07-25T08:15:15.359Z,47.56
2023-07-25T08:17:44.194Z,46.58
2023-07-25T08:20:14.645Z,47.10
2023-07-25T08:22:43.416Z,46.82
2023-07-25T08:25:14.003Z,47.24
2023-07-25T08:27:42.822Z,45.93
2023-07-25T08:30:13.027Z,45.46
2023-07-25T08:32:41.970Z,46.20
2023-07-25T08:35:11.195Z,46.55
2023-07-25T08:37:40.069Z,47.01
2023-07-25T08:40:11.488Z,45.97
2023-07-25T08:42:44.887Z,45.49
2023-07-25T08:45:14.710Z,45.23
2023-07-25T08:47:45.719Z,44.56
2023-07-25T08:50:19.148Z,43.60
2023-07-25T08:52:54.158Z,43.14
2023-07-25T08:55:23.591Z,43.77
2023-07-25T08:57:55.174Z,44.16
2023-07-25T09:00:25.406Z,44.16
2023-07-25T09:02:56.369Z,43.66
2023-07-25T09:05:30.677Z,42.89
2023-07-25T09:08:00.450Z,43.83
2023-07-25T09:10:31.580Z,44.09
2023-07-25T09:13:01.782Z,42.99
2023-07-25T09:15:31.171Z,43.17
2023-07-25T09:17:59.995Z,42.99
2023-07-25T09:20:29.562Z,42.19
2023-07-25T09:22:59.137Z,42.74
2023-07-25T09:25:29.081Z,43.37
2023-07-25T09:27:58.095Z,42.96
2023-07-25T09:30:30.133Z,42.86
2023-07-25T09:32:58.966Z,42.47
2023-07-25T09:35:28.060Z,42.32
2023-07-25T09:37:57.464Z,42.32
2023-07-25T09:40:27.499Z,42.62
2023-07-25T09:42:56.284Z,41.73
2023-07-25T09:45:25.406Z,41.98
2023-07-25T09:47:55.627Z,41.14
2023-07-25T09:50:28.030Z,41.12
2023-07-25T09:52:56.711Z,41.50
2023-07-25T09:55:26.239Z,41.21
2023-07-25T09:57:55.966Z,41.03
2023-07-25T10:00:25.489Z,41.08
2023-07-25T10:02:57.498Z,39.28
2023-07-25T10:05:30.155Z,39.18
2023-07-25T10:07:59.498Z,38.49
2023-07-25T10:10:29.472Z,39.24
2023-07-25T10:12:58.438Z,38.86
2023-07-25T10:15:28.151Z,38.67
2023-07-25T10:18:05.203Z,39.19
2023-07-25T10:20:34.368Z,39.24
2023-07-25T10:23:12.261Z,39.54
2023-07-25T10:25:41.374Z,38.95
2023-07-25T10:28:10.766Z,38.82
2023-07-25T10:30:45.262Z,38.62
2023-07-25T10:33:18.215Z,37.10
2023-07-25T10:35:54.219Z,37.36
2023-07-25T10:38:31.562Z,36.96
2023-07-25T10:41:03.259Z,36.88
2023-07-25T10:44:03.347Z,35.15
2023-07-25T10:46:35.127Z,34.18
2023-07-25T10:49:14.892Z,33.88
2023-07-25T10:51:52.595Z,34.29
2023-07-25T10:54:26.362Z,35.08
2023-07-25T10:57:18.542Z,35.56
2023-07-25T11:00:01.899Z,36.28
2023-07-25T11:02:33.309Z,36.47
2023-07-25T11:05:27.008Z,36.30
2023-07-25T11:07:57.340Z,36.33
2023-07-25T11:10:28.777Z,36.51
2023-07-25T11:13:00.368Z,36.96
2023-07-25T11:15:46.684Z,37.26
2023-07-25T11:18:16.578Z,36.80
2023-07-25T11:21:00.192Z,36.26
2023-07-25T11:23:29.421Z,35.37
2023-07-25T11:26:02.861Z,35.52
2023-07-25T11:28:32.589Z,36.46
2023-07-25T11:31:02.158Z,36.08
2023-07-25T11:33:39.398Z,35.83
2023-07-25T11:36:09.689Z,36.11
2023-07-25T11:38:39.699Z,36.63
2023-07-25T11:41:09.782Z,36.73
2023-07-25T11:43:38.915Z,36.91
2023-07-25T11:46:08.607Z,36.95
2023-07-25T11:48:37.900Z,36.23
2023-07-25T11:51:08.428Z,37.04
2023-07-25T11:53:38.068Z,36.55
2023-07-25T11:56:07.588Z,37.09
2023-07-25T11:58:38.167Z,36.38
2023-07-25T12:01:10.953Z,35.69
2023-07-25T12:03:49.329Z,35.15
2023-07-25T12:06:30.710Z,34.38
2023-07-25T12:09:01.817Z,35.62
2023-07-25T12:11:31.546Z,35.91
2023-07-25T12:14:02.906Z,36.49
2023-07-25T12:16:34.246Z,36.53
2023-07-25T12:19:07.286Z,36.53
2023-07-25T12:21:40.198Z,35.86
2023-07-25T12:24:11.618Z,36.97
2023-07-25T12:26:49.423Z,36.95
2023-07-25T12:29:23.279Z,36.95
2023-07-25T12:31:52.845Z,36.81
2023-07-25T12:34:22.866Z,37.30
2023-07-25T12:36:54.389Z,37.67
2023-07-25T12:39:23.670Z,37.15
2023-07-25T12:41:52.699Z,35.89
2023-07-25T12:44:21.965Z,35.80
2023-07-25T12:46:51.008Z,36.58
2023-07-25T12:49:20.640Z,36.29
2023-07-25T12:51:49.667Z,37.04
2023-07-25T12:54:20.504Z,37.33
2023-07-25T12:56:49.722Z,37.51
2023-07-25T12:59:19.029Z,37.20
2023-07-25T13:01:49.222Z,37.60
2023-07-25T13:04:18.808Z,37.92
2023-07-25T13:06:48.278Z,38.38
2023-07-25T13:09:17.520Z,38.33
2023-07-25T13:11:48.082Z,38.16
2023-07-25T13:14:17.388Z,38.43
2023-07-25T13:16:46.546Z,37.70
2023-07-25T13:19:16.194Z,37.50
2023-07-25T13:21:45.475Z,38.08
2023-07-25T13:24:14.886Z,37.87
2023-07-25T13:26:44.089Z,37.14
2023-07-25T13:29:14.823Z,38.22
2023-07-25T13:31:43.955Z,37.92
2023-07-25T13:34:14.095Z,37.62
2023-07-25T13:36:43.198Z,37.80
2023-07-25T13:39:12.533Z,37.28
2023-07-25T13:41:41.625Z,37.39
2023-07-25T13:44:11.035Z,37.31
2023-07-25T13:46:42.695Z,37.08
2023-07-25T13:49:12.094Z,37.29
2023-07-25T13:51:41.344Z,37.32
2023-07-25T13:54:10.843Z,37.48
2023-07-25T13:56:40.088Z,36.77
2023-07-25T13:59:09.440Z,37.30
2023-07-25T14:01:38.451Z,37.08
2023-07-25T14:04:10.766Z,37.18
2023-07-25T14:06:39.863Z,37.66
2023-07-25T14:09:09.271Z,37.46
2023-07-25T14:11:38.363Z,37.72
2023-07-25T14:14:07.894Z,37.61
2023-07-25T14:16:37.108Z,38.21
2023-07-25T14:19:08.161Z,38.27
2023-07-25T14:21:37.171Z,38.46
2023-07-25T14:24:07.756Z,37.54
2023-07-25T14:26:37.556Z,37.10
2023-07-25T14:29:07.164Z,37.06
2023-07-25T14:31:36.190Z,37.57
2023-07-25T14:34:05.551Z,37.95
2023-07-25T14:36:36.039Z,37.79
2023-07-25T14:39:05.729Z,38.02
2023-07-25T14:41:35.282Z,37.87
2023-07-25T14:44:04.658Z,38.42
2023-07-25T14:46:34.222Z,38.28
2023-07-25T14:49:04.008Z,38.60
2023-07-25T14:51:33.210Z,37.84
2023-07-25T14:54:04.046Z,38.42
2023-07-25T14:56:34.230Z,38.57
2023-07-25T14:59:05.005Z,38.63
2023-07-25T15:01:34.247Z,39.05
2023-07-25T15:04:04.274Z,39.23
2023-07-25T15:06:34.864Z,39.21
2023-07-25T15:09:07.130Z,39.42
2023-07-25T15:11:37.561Z,39.48
2023-07-25T15:14:06.924Z,39.62
2023-07-25T15:16:36.405Z,39.53
2023-07-25T15:19:07.129Z,39.94
2023-07-25T15:21:36.403Z,39.98
2023-07-25T15:24:07.465Z,39.66
2023-07-25T15:26:36.683Z,39.83
2023-07-25T15:42:30.480Z,40.00
2023-07-25T15:44:59.821Z,39.36
2023-07-25T15:47:29.093Z,40.05
2023-07-25T15:49:58.643Z,39.92
2023-07-25T15:52:27.721Z,40.08
2023-07-25T15:54:56.960Z,40.35
2023-07-25T15:57:26.183Z,40.53
2023-07-25T15:59:56.935Z,40.57
2023-07-25T16:02:25.946Z,40.57
2023-07-25T16:04:55.252Z,40.35
2023-07-25T16:07:25.184Z,40.50
2023-07-25T16:09:54.535Z,41.00
2023-07-25T16:12:23.892Z,41.52
2023-07-25T16:14:53.339Z,41.65
2023-07-25T16:17:24.444Z,42.11
2023-07-25T16:19:53.932Z,42.16
2023-07-25T16:22:22.984Z,42.30
2023-07-25T16:24:53.988Z,42.41
2023-07-25T16:27:23.176Z,42.61
2023-07-25T16:29:52.512Z,42.61
2023-07-25T16:32:23.148Z,42.87
2023-07-25T16:34:52.562Z,43.16
2023-07-25T16:37:21.651Z,43.04
2023-07-25T16:39:51.064Z,43.28
2023-07-25T16:42:20.205Z,43.25
2023-07-25T16:44:50.197Z,43.32
2023-07-25T16:47:19.368Z,43.60
2023-07-25T16:49:50.150Z,43.88
2023-07-25T16:52:19.144Z,43.85
2023-07-25T16:54:48.496Z,44.22
2023-07-25T16:57:17.525Z,44.22
2023-07-25T16:59:46.993Z,44.10
2023-07-25T17:02:16.115Z,44.25
2023-07-25T17:04:45.548Z,44.08
2023-07-25T17:07:16.171Z,44.20
2023-07-25T17:09:45.502Z,44.63
2023-07-25T17:12:14.585Z,44.01
2023-07-25T17:14:44.099Z,44.06
2023-07-25T17:17:13.911Z,44.45
2023-07-25T17:19:43.497Z,44.14
2023-07-25T17:22:12.633Z,44.33
2023-07-25T17:24:43.346Z,44.84
2023-07-25T17:27:12.516Z,44.49
2023-07-25T17:29:41.863Z,44.94
2023-07-25T17:32:11.032Z,45.60
2023-07-25T17:34:40.257Z,45.79
2023-07-25T17:37:09.676Z,46.06
2023-07-25T17:39:38.993Z,45.91
2023-07-25T17:42:09.931Z,45.70
2023-07-25T17:44:39.366Z,45.58
2023-07-25T17:47:08.641Z,45.92
2023-07-25T17:49:38.047Z,45.66
2023-07-25T17:52:08.625Z,46.04
2023-07-25T17:54:37.989Z,46.09
2023-07-25T17:57:08.966Z,45.82
2023-07-25T17:59:38.511Z,46.28
2023-07-25T18:02:08.569Z,46.33
2023-07-25T18:04:37.979Z,46.00
2023-07-25T18:07:07.861Z,46.32
2023-07-25T18:09:37.312Z,46.63
2023-07-25T18:12:09.163Z,46.63
2023-07-25T18:14:38.593Z,46.57
2023-07-25T18:17:08.616Z,47.03
2023-07-25T18:19:38.100Z,46.97
2023-07-25T18:22:07.867Z,46.75
2023-07-25T18:24:37.303Z,46.68
2023-07-25T18:27:08.272Z,47.16
2023-07-25T18:29:37.664Z,46.52
2023-07-25T18:32:07.621Z,47.08
2023-07-25T18:34:37.141Z,47.55
2023-07-25T18:37:06.796Z,47.75
2023-07-25T18:39:36.182Z,47.66
2023-07-25T18:42:05.761Z,47.94
2023-07-25T18:44:36.644Z,47.66
2023-07-25T18:47:06.944Z,47.65
2023-07-25T18:49:36.661Z,48.01
2023-07-25T18:52:06.611Z,48.72
2023-07-25T18:54:35.934Z,48.97
2023-07-25T18:57:05.230Z,49.18
2023-07-25T18:59:36.202Z,49.19
2023-07-25T19:02:05.710Z,48.67
2023-07-25T19:04:35.040Z,49.24
2023-07-25T19:07:04.090Z,48.79
2023-07-25T19:09:34.707Z,48.89
2023-07-25T19:12:03.841Z,48.74
2023-07-25T19:14:33.130Z,48.95
2023-07-25T19:17:03.556Z,49.07
2023-07-25T19:19:33.185Z,48.94
2023-07-25T19:22:02.338Z,49.11
2023-07-25T19:24:31.932Z,48.83
2023-07-25T19:27:02.036Z,48.93
2023-07-25T19:29:31.454Z,49.36
2023-07-25T19:32:00.731Z,49.50
2023-07-25T19:34:31.495Z,49.89
2023-07-25T19:37:00.465Z,49.83
2023-07-25T19:39:30.061Z,49.77
2023-07-25T19:41:59.075Z,49.77
2023-07-25T19:44:28.404Z,49.89
2023-07-25T19:46:57.590Z,49.66
2023-07-25T19:49:27.543Z,49.87
2023-07-25T19:51:58.049Z,49.74
2023-07-25T19:54:27.493Z,49.86
2023-07-25T19:56:56.527Z,49.73
2023-07-25T19:59:25.886Z,50.29
2023-07-25T20:01:55.299Z,50.35
2023-07-25T20:04:24.656Z,50.19
2023-07-25T20:06:53.771Z,50.19
2023-07-25T20:09:24.725Z,50.53
2023-07-25T20:11:53.779Z,50.04
2023-07-25T20:14:23.291Z,50.55
2023-07-25T20:16:52.410Z,50.63
2023-07-25T20:19:24.336Z,51.02
2023-07-25T20:21:53.381Z,51.02
2023-07-25T20:24:24.249Z,51.22
2023-07-25T20:26:55.558Z,51.25
2023-07-25T20:29:24.893Z,51.37
2023-07-25T20:31:54.034Z,51.77
2023-07-25T20:34:23.504Z,52.16
2023-07-25T20:36:52.604Z,52.16
2023-07-25T20:39:23.436Z,52.46
2023-07-25T20:41:52.724Z,52.62
2023-07-25T20:44:22.328Z,52.95
2023-07-25T20:46:51.576Z,53.18
2023-07-25T20:49:20.991Z,53.48
2023-07-25T20:51:50.149Z,53.55
2023-07-25T20:54:19.710Z,53.67
2023-07-25T20:56:50.162Z,54.06
2023-07-25T20:59:19.685Z,54.47
2023-07-25T21:01:48.799Z,54.83
2023-07-25T21:04:18.346Z,55.11
2023-07-25T21:06:47.639Z,55.46
2023-07-25T21:09:17.238Z,55.94
2023-07-25T21:11:46.292Z,56.11
2023-07-25T21:14:17.314Z,56.82
2023-07-25T21:16:46.542Z,56.85
2023-07-25T21:19:16.020Z,57.41
2023-07-25T21:21:45.525Z,57.43
2023-07-25T21:24:15.924Z,57.86
2023-07-25T21:26:45.090Z,57.95
2023-07-25T21:29:14.418Z,58.13
2023-07-25T21:31:44.851Z,58.50
2023-07-25T21:34:14.376Z,58.82
2023-07-25T21:36:43.640Z,58.91
2023-07-25T21:39:13.041Z,59.32
2023-07-25T21:41:42.182Z,59.52
2023-07-25T21:44:11.482Z,59.81
2023-07-25T21:46:41.060Z,60.14
2023-07-25T21:49:11.986Z,60.35
2023-07-25T21:51:41.064Z,60.38
2023-07-25T21:54:10.431Z,60.78
2023-07-25T21:56:39.538Z,60.81
2023-07-25T21:59:08.889Z,61.21
2023-07-25T22:01:37.906Z,61.26
2023-07-25T22:04:09.161Z,61.45
2023-07-25T22:06:39.829Z,61.61
2023-07-25T22:09:08.966Z,61.72
2023-07-25T22:11:38.247Z,62.04
2023-07-25T22:14:07.641Z,62.28
2023-07-25T22:16:37.150Z,62.53
2023-07-25T22:19:06.369Z,62.57
2023-07-25T22:21:35.734Z,62.78
2023-07-25T22:24:06.680Z,62.87
2023-07-25T22:26:36.064Z,63.05
2023-07-25T22:29:05.141Z,63.09
2023-07-25T22:31:37.352Z,63.17
2023-07-25T22:34:06.466Z,63.38
2023-07-25T22:36:35.882Z,63.48
2023-07-25T22:39:06.426Z,63.79
2023-07-25T22:41:35.826Z,64.07
2023-07-25T22:44:04.973Z,63.96
2023-07-25T22:46:34.982Z,64.37
2023-07-25T22:49:04.060Z,64.28
2023-07-25T22:51:33.315Z,64.89
2023-07-25T22:54:02.578Z,64.80
2023-07-25T22:56:34.379Z,65.14
2023-07-25T22:59:05.592Z,65.11
2023-07-25T23:01:35.384Z,65.27
2023-07-25T23:04:04.626Z,65.36
2023-07-25T23:06:34.023Z,65.87
2023-07-25T23:09:03.604Z,66.25
2023-07-25T23:11:34.543Z,66.04
2023-07-25T23:14:03.832Z,66.04
2023-07-25T23:16:33.761Z,66.32
2023-07-25T23:19:03.140Z,66.73
2023-07-25T23:21:32.398Z,66.94
2023-07-25T23:24:01.536Z,67.04
2023-07-25T23:26:31.195Z,67.00
2023-07-25T23:29:01.837Z,67.13
2023-07-25T23:31:31.317Z,67.23
2023-07-25T23:34:00.497Z,67.52
2023-07-25T23:36:30.104Z,67.79
2023-07-25T23:38:59.513Z,67.94
2023-07-25T23:41:28.870Z,68.16
2023-07-25T23:43:58.316Z,68.33
2023-07-25T23:46:28.993Z,68.31
2023-07-25T23:48:58.066Z,68.20
2023-07-25T23:51:27.534Z,68.42
2023-07-25T23:53:58.166Z,68.67
2023-07-25T23:56:27.319Z,69.06
2023-07-25T23:58:56.482Z,69.06
